Time;durP1;ratioP1;P1;durP2;ratioP2;P2;SDS_P1;SDS_P2;PMS_P1;PMS_P2;Temp;Humidity;BMP_temperature;BMP_pressure;BME280_temperature;BME280_humidity;BME280_pressure;Samples;Min_cycle;Max_cycle;Signal;HPM_P1;HPM_P2
2024/02/05 18:14:47;;;;;;;13.48;5.10;;;10.20;99.90;;;;;;2111731;23;20479;-76
2024/02/05 18:15:48;;;;;;;15.77;4.80;;;10.20;99.90;;;;;;2003492;29;20046;-75
2024/02/05 18:16:49;;;;;;;14.25;4.57;;;10.20;99.90;;;;;;1999540;29;20495;-73
2024/02/05 18:17:51;;;;;;;13.48;4.53;;;10.20;99.90;;;;;;2000526;29;20116;-75
2024/02/05 18:18:54;;;;;;;14.13;5.10;;;10.20;99.90;;;;;;1997917;29;20046;-73
2024/02/05 18:19:55;;;;;;;9.88;4.53;;;10.20;99.90;;;;;;1999324;29;20124;-76
2024/02/05 18:20:55;;;;;;;12.98;4.75;;;10.20;99.90;;;;;;1996754;29;20026;-76
2024/02/05 18:21:56;;;;;;;17.38;4.47;;;10.20;99.90;;;;;;2003858;29;20093;-75
2024/02/05 18:22:56;;;;;;;16.35;4.57;;;10.20;99.90;;;;;;2006853;29;20113;-75
2024/02/05 18:23:58;;;;;;;10.68;4.00;;;10.20;99.90;;;;;;2006614;29;20041;-75
2024/02/05 18:25:01;;;;;;;10.77;4.15;;;10.20;99.90;;;;;;2004095;29;20154;-78
2024/02/05 18:26:02;;;;;;;10.75;4.25;;;10.20;99.90;;;;;;1997939;29;20042;-77
2024/02/05 18:27:03;;;;;;;10.82;4.40;;;10.20;99.90;;;;;;1994402;29;20428;-74
2024/02/05 18:28:03;;;;;;;12.75;4.50;;;10.20;99.90;;;;;;1999498;29;20130;-77
2024/02/05 18:29:04;;;;;;;10.38;4.60;;;10.20;99.90;;;;;;2007542;29;20034;-76
2024/02/05 18:30:06;;;;;;;9.63;4.35;;;10.20;99.90;;;;;;2007037;29;20120;-84
2024/02/05 18:31:06;;;;;;;11.35;4.28;;;10.20;99.90;;;;;;1999396;29;20070;-72
2024/02/05 18:32:07;;;;;;;10.95;4.00;;;10.20;99.90;;;;;;2001238;29;20045;-73
2024/02/05 18:33:08;;;;;;;12.55;4.00;;;10.20;99.90;;;;;;2007728;29;20053;-84
2024/02/05 18:34:11;;;;;;;11.85;4.75;;;10.10;99.90;;;;;;2009095;29;20038;-83
2024/02/05 18:35:12;;;;;;;12.85;4.20;;;10.10;99.90;;;;;;2005066;29;20038;-81
2024/02/05 18:36:12;;;;;;;11.82;4.20;;;10.10;99.90;;;;;;1995424;29;20033;-82
2024/02/05 18:37:14;;;;;;;11.00;3.97;;;10.10;99.90;;;;;;1995006;29;20023;-81
2024/02/05 18:38:14;;;;;;;10.50;4.10;;;10.10;99.90;;;;;;2009816;29;20511;-79
2024/02/05 18:39:15;;;;;;;11.35;4.55;;;10.10;99.90;;;;;;2008848;29;20121;-77
2024/02/05 18:40:16;;;;;;;9.88;3.97;;;10.10;99.90;;;;;;1995535;29;20038;-79
2024/02/05 18:41:16;;;;;;;12.80;4.47;;;10.10;99.90;;;;;;1991889;29;20042;-79
2024/02/05 18:42:17;;;;;;;12.55;4.15;;;10.20;99.90;;;;;;1990482;29;20439;-81
2024/02/05 18:43:21;;;;;;;14.57;4.50;;;10.20;99.90;;;;;;2005395;29;20347;-80
2024/02/05 18:44:22;;;;;;;13.82;4.38;;;10.20;99.90;;;;;;2005576;29;20034;-79
2024/02/05 18:45:24;;;;;;;12.43;4.10;;;10.20;99.90;;;;;;2007465;29;20496;-85
2024/02/05 18:46:24;;;;;;;10.10;4.60;;;10.20;99.90;;;;;;2008313;29;20030;-77
2024/02/05 18:47:25;;;;;;;10.60;4.25;;;10.10;99.90;;;;;;2007048;29;20116;-79
2024/02/05 18:48:26;;;;;;;11.48;4.40;;;10.20;99.90;;;;;;1997158;29;20032;-78
2024/02/05 18:49:27;;;;;;;11.10;4.13;;;10.20;99.90;;;;;;1997001;29;20545;-79
2024/02/05 18:50:28;;;;;;;14.07;3.95;;;10.10;99.90;;;;;;2007934;29;20039;-78
2024/02/05 18:51:29;;;;;;;13.68;4.35;;;10.10;99.90;;;;;;2008014;29;20021;-84
2024/02/05 18:52:29;;;;;;;10.60;4.20;;;10.10;99.90;;;;;;2008102;29;20060;-80
2024/02/05 18:53:30;;;;;;;14.05;4.20;;;10.10;99.90;;;;;;2002542;29;20037;-80
2024/02/05 18:54:34;;;;;;;10.82;3.97;;;10.10;99.90;;;;;;1995056;29;20146;-82
2024/02/05 18:55:35;;;;;;;13.73;4.47;;;10.20;99.90;;;;;;1993513;29;20477;-84
2024/02/05 18:56:36;;;;;;;15.57;4.40;;;10.20;99.90;;;;;;1997456;29;20034;-81
2024/02/05 18:57:40;;;;;;;11.25;4.10;;;10.20;99.90;;;;;;1993995;29;20098;-79
2024/02/05 18:58:41;;;;;;;12.20;4.13;;;10.20;99.90;;;;;;2000754;29;20033;-78
2024/02/05 18:59:43;;;;;;;17.20;4.10;;;10.20;99.90;;;;;;2007108;29;20026;-77
2024/02/05 19:00:43;;;;;;;11.88;4.10;;;10.30;99.90;;;;;;2004162;29;20044;-79
2024/02/05 19:01:44;;;;;;;12.48;4.18;;;10.30;99.90;;;;;;2005358;29;20372;-83
2024/02/05 19:02:44;;;;;;;13.48;4.20;;;10.30;99.90;;;;;;2005520;29;20503;-78
2024/02/05 19:03:45;;;;;;;15.05;4.30;;;10.30;99.90;;;;;;2004354;29;20029;-76
2024/02/05 19:04:46;;;;;;;11.35;4.20;;;10.30;99.90;;;;;;2005367;29;20029;-78
2024/02/05 19:05:47;;;;;;;13.63;4.50;;;10.30;99.90;;;;;;2005191;29;20569;-74
2024/02/05 19:06:47;;;;;;;11.85;4.05;;;10.30;99.90;;;;;;1999047;29;20041;-77
2024/02/05 19:07:48;;;;;;;16.35;4.18;;;10.30;99.90;;;;;;1990556;29;20113;-77
2024/02/05 19:08:51;;;;;;;9.80;4.15;;;10.30;99.90;;;;;;1997103;29;20062;-76
2024/02/05 19:09:51;;;;;;;10.13;4.30;;;10.30;99.90;;;;;;1995576;29;20034;-75
2024/02/05 19:10:53;;;;;;;12.02;4.70;;;10.30;99.90;;;;;;1993067;29;20077;-76
2024/02/05 19:11:57;;;;;;;10.05;3.72;;;10.20;99.90;;;;;;1996448;29;20045;-77
2024/02/05 19:12:58;;;;;;;10.93;3.80;;;10.20;99.90;;;;;;1988098;29;20031;-76
2024/02/05 19:13:58;;;;;;;11.23;3.72;;;10.20;99.90;;;;;;2003319;29;20030;-76
2024/02/05 19:15:00;;;;;;;9.23;3.85;;;10.30;99.90;;;;;;2000954;29;20712;-76
2024/02/05 19:16:04;;;;;;;14.05;4.40;;;10.30;99.90;;;;;;1995584;29;20066;-76
2024/02/05 19:17:04;;;;;;;15.25;4.38;;;10.30;99.90;;;;;;2002910;29;20033;-74
2024/02/05 19:18:05;;;;;;;9.88;4.10;;;10.30;99.90;;;;;;2010520;29;20041;-75
2024/02/05 19:19:05;;;;;;;14.98;4.60;;;10.30;99.90;;;;;;2004195;29;20098;-74
2024/02/05 19:20:07;;;;;;;12.50;4.40;;;10.30;99.90;;;;;;2006167;29;20141;-77
2024/02/05 19:21:08;;;;;;;11.93;4.53;;;10.30;99.90;;;;;;2002083;29;20184;-77
2024/02/05 19:22:09;;;;;;;12.27;4.47;;;10.30;99.90;;;;;;2009204;29;20032;-83
2024/02/05 19:23:09;;;;;;;13.30;4.50;;;10.30;99.90;;;;;;2006921;29;20034;-81
2024/02/05 19:24:12;;;;;;;11.07;4.18;;;10.20;99.90;;;;;;2002955;29;20058;-80
2024/02/05 19:25:13;;;;;;;12.75;4.20;;;10.30;99.90;;;;;;2007940;29;20070;-81
2024/02/05 19:26:13;;;;;;;13.88;4.40;;;10.30;99.90;;;;;;2006688;29;20046;-79
2024/02/05 19:27:14;;;;;;;12.75;4.53;;;10.20;99.90;;;;;;2010798;29;20032;-80
2024/02/05 19:28:14;;;;;;;12.07;3.88;;;10.20;99.90;;;;;;2006030;29;20029;-80
2024/02/05 19:29:15;;;;;;;11.85;4.32;;;10.10;99.90;;;;;;2004533;29;20030;-80
2024/02/05 19:30:18;;;;;;;13.52;4.13;;;10.20;99.90;;;;;;2002669;29;20042;-78
2024/02/05 19:31:19;;;;;;;11.82;4.05;;;10.20;99.90;;;;;;2003532;29;20746;-78
2024/02/05 19:32:19;;;;;;;12.85;4.18;;;10.20;99.90;;;;;;2009261;29;20051;-79
2024/02/05 19:33:22;;;;;;;15.38;4.28;;;10.10;99.90;;;;;;2007552;29;20071;-80
2024/02/05 19:34:23;;;;;;;10.45;4.47;;;10.10;99.90;;;;;;2009906;29;20148;-78
2024/02/05 19:35:23;;;;;;;11.63;4.15;;;10.10;99.90;;;;;;2008608;29;20408;-79
2024/02/05 19:36:24;;;;;;;12.73;4.13;;;10.00;99.90;;;;;;2001578;29;20029;-79
2024/02/05 19:37:25;;;;;;;13.13;4.20;;;10.00;99.90;;;;;;2006819;29;20036;-78
2024/02/05 19:38:25;;;;;;;13.32;4.80;;;10.10;99.90;;;;;;2008291;29;20041;-79
2024/02/05 19:39:26;;;;;;;11.57;4.40;;;10.10;99.90;;;;;;2007847;29;20502;-78
2024/02/05 19:40:30;;;;;;;13.82;4.47;;;10.10;99.90;;;;;;2003604;29;20507;-78
2024/02/05 19:41:34;;;;;;;10.13;4.10;;;10.10;99.90;;;;;;2003132;29;20033;-79
2024/02/05 19:42:35;;;;;;;15.43;4.47;;;10.10;99.90;;;;;;1998876;29;20061;-79
2024/02/05 19:43:37;;;;;;;13.23;4.57;;;10.00;99.90;;;;;;2010522;29;20046;-79
2024/02/05 19:44:38;;;;;;;11.20;4.07;;;10.00;99.90;;;;;;2002743;29;20034;-77
2024/02/05 19:45:38;;;;;;;11.20;4.10;;;10.00;99.90;;;;;;2006797;29;20093;-78
2024/02/05 19:46:39;;;;;;;14.07;3.90;;;10.10;99.90;;;;;;2004252;29;20753;-78
2024/02/05 19:47:40;;;;;;;11.70;4.03;;;10.10;99.90;;;;;;2009873;29;20029;-79
2024/02/05 19:48:40;;;;;;;10.82;4.25;;;10.10;99.90;;;;;;2007246;29;20052;-77
2024/02/05 19:49:41;;;;;;;12.77;4.38;;;10.10;99.90;;;;;;2002732;29;20365;-79
2024/02/05 19:50:42;;;;;;;14.98;4.45;;;10.00;99.90;;;;;;2003446;29;20041;-79
2024/02/05 19:51:42;;;;;;;12.35;4.22;;;10.00;99.90;;;;;;2007916;29;20053;-79
2024/02/05 19:52:43;;;;;;;12.95;4.28;;;10.00;99.90;;;;;;2004212;29;20029;-80
2024/02/05 19:53:44;;;;;;;10.77;4.20;;;10.00;99.90;;;;;;2005044;29;20037;-78
2024/02/05 19:54:44;;;;;;;11.45;4.07;;;10.00;99.90;;;;;;2008245;29;20036;-80
2024/02/05 19:55:45;;;;;;;13.30;4.57;;;9.90;99.90;;;;;;2012911;29;20033;-77
2024/02/05 19:56:46;;;;;;;12.25;4.57;;;10.00;99.90;;;;;;2014711;29;20063;-78
2024/02/05 19:57:46;;;;;;;12.52;4.43;;;10.00;99.90;;;;;;2007765;29;20582;-79
2024/02/05 19:58:47;;;;;;;12.38;4.15;;;10.00;99.90;;;;;;2008620;29;20141;-79
2024/02/05 19:59:48;;;;;;;13.10;4.22;;;10.00;99.90;;;;;;2006362;29;20025;-78
2024/02/05 20:00:49;;;;;;;13.02;4.20;;;9.90;99.90;;;;;;2012604;29;20056;-79
2024/02/05 20:01:52;;;;;;;11.85;4.50;;;9.90;99.90;;;;;;2011785;29;20048;-80
2024/02/05 20:02:53;;;;;;;14.95;4.40;;;9.90;99.90;;;;;;2011982;29;20029;-79
2024/02/05 20:03:53;;;;;;;13.63;4.10;;;9.90;99.90;;;;;;2012740;29;20021;-79
2024/02/05 20:04:54;;;;;;;13.02;4.45;;;9.90;99.90;;;;;;2010054;29;20132;-79
2024/02/05 20:05:55;;;;;;;10.50;4.10;;;9.90;99.90;;;;;;2006914;29;20153;-78
2024/02/05 20:07:01;;;;;;;10.93;4.10;;;9.80;99.90;;;;;;2007065;29;20070;-78
2024/02/05 20:08:02;;;;;;;9.25;4.60;;;9.90;99.90;;;;;;2007598;29;20032;-81
2024/02/05 20:09:04;;;;;;;10.77;3.97;;;9.90;99.90;;;;;;2006968;29;20068;-78
2024/02/05 20:10:05;;;;;;;12.35;4.18;;;9.90;99.90;;;;;;2006169;29;20186;-81
2024/02/05 20:11:06;;;;;;;15.05;4.63;;;9.90;99.90;;;;;;2005852;29;20057;-78
2024/02/05 20:12:07;;;;;;;11.73;4.28;;;9.90;99.90;;;;;;2005587;29;20602;-77
2024/02/05 20:13:08;;;;;;;12.38;4.28;;;9.90;99.90;;;;;;2005519;29;20101;-79
2024/02/05 20:14:09;;;;;;;13.18;4.25;;;9.90;99.90;;;;;;2008397;29;20108;-79
2024/02/05 20:15:10;;;;;;;10.13;4.35;;;9.80;99.90;;;;;;2007634;29;20037;-80
2024/02/05 20:16:11;;;;;;;11.65;4.50;;;9.90;99.90;;;;;;2006989;29;20929;-80
2024/02/05 20:17:11;;;;;;;13.93;4.53;;;9.90;99.90;;;;;;2005613;29;20057;-79
2024/02/05 20:18:12;;;;;;;14.27;4.53;;;9.90;99.90;;;;;;2004910;29;20563;-80
2024/02/05 20:19:13;;;;;;;13.50;4.80;;;9.90;99.90;;;;;;2007883;29;20382;-78
2024/02/05 20:20:13;;;;;;;13.23;4.40;;;9.90;99.90;;;;;;2004848;29;20037;-78
2024/02/05 20:21:15;;;;;;;12.18;4.43;;;9.90;99.90;;;;;;2003973;29;20033;-77
2024/02/05 20:22:15;;;;;;;15.35;4.10;;;9.90;99.90;;;;;;2011444;29;20521;-78
2024/02/05 20:23:16;;;;;;;12.15;4.35;;;9.90;99.90;;;;;;2004252;29;20033;-78
2024/02/05 20:24:17;;;;;;;12.48;4.40;;;9.90;99.90;;;;;;2008916;29;20051;-77
2024/02/05 20:25:17;;;;;;;14.25;4.82;;;9.90;99.90;;;;;;2010091;29;20029;-78
2024/02/05 20:26:19;;;;;;;14.95;5.38;;;9.90;99.90;;;;;;2008814;29;20051;-79
2024/02/05 20:27:20;;;;;;;16.92;5.32;;;9.90;99.90;;;;;;2008353;29;20028;-80
2024/02/05 20:28:20;;;;;;;12.57;4.55;;;9.90;99.90;;;;;;2008720;29;20948;-80
2024/02/05 20:29:24;;;;;;;12.98;4.07;;;9.90;99.90;;;;;;2008396;29;20494;-79
2024/02/05 20:30:24;;;;;;;14.02;4.50;;;9.80;99.90;;;;;;2004002;29;20527;-78
2024/02/05 20:31:25;;;;;;;10.63;4.10;;;9.80;99.90;;;;;;2000427;29;20030;-76
2024/02/05 20:32:28;;;;;;;10.48;4.32;;;9.80;99.90;;;;;;2000736;29;20086;-79
2024/02/05 20:33:29;;;;;;;14.73;4.38;;;9.80;99.90;;;;;;2001804;29;20033;-79
2024/02/05 20:34:29;;;;;;;12.40;4.15;;;9.80;99.90;;;;;;2012824;29;20033;-78
2024/02/05 20:35:30;;;;;;;14.15;4.30;;;9.90;99.90;;;;;;2018875;29;20052;-79
2024/02/05 20:36:30;;;;;;;11.00;4.00;;;9.80;99.90;;;;;;2015987;29;20047;-77
2024/02/05 20:37:31;;;;;;;10.32;3.85;;;9.80;99.90;;;;;;2006241;29;20060;-79
2024/02/05 20:38:32;;;;;;;10.85;4.22;;;9.80;99.90;;;;;;2006769;29;20434;-78
2024/02/05 20:39:32;;;;;;;13.40;3.95;;;9.80;99.90;;;;;;2007980;29;20073;-78
2024/02/05 20:40:33;;;;;;;12.82;4.10;;;9.80;99.90;;;;;;2006065;29;20049;-78
2024/02/05 20:41:39;;;;;;;12.48;4.22;;;9.80;99.90;;;;;;2005986;29;20069;-78
2024/02/05 20:42:43;;;;;;;14.00;4.28;;;9.80;99.90;;;;;;2004957;29;20041;-78
2024/02/05 20:43:43;;;;;;;13.45;4.30;;;9.80;99.90;;;;;;2005699;29;20029;-79
2024/02/05 20:44:44;;;;;;;12.93;4.00;;;9.70;99.90;;;;;;2008688;29;20500;-78
2024/02/05 20:45:45;;;;;;;10.75;4.13;;;9.70;99.90;;;;;;2006704;29;20033;-78
2024/02/05 20:46:46;;;;;;;13.98;4.70;;;9.70;99.90;;;;;;2008277;29;20030;-80
2024/02/05 20:47:47;;;;;;;16.00;4.30;;;9.70;99.90;;;;;;2006140;29;20038;-78
2024/02/05 20:48:48;;;;;;;13.48;4.57;;;9.70;99.90;;;;;;2004660;29;20071;-78
2024/02/05 20:49:48;;;;;;;11.90;4.45;;;9.70;99.90;;;;;;2007001;29;20452;-78
2024/02/05 20:50:49;;;;;;;14.68;4.47;;;9.70;99.90;;;;;;2005853;29;20510;-79
2024/02/05 20:51:50;;;;;;;12.35;4.28;;;9.70;99.90;;;;;;2004338;29;20070;-80
2024/02/05 20:52:50;;;;;;;13.18;4.30;;;9.60;99.90;;;;;;2004463;29;20057;-79
2024/02/05 20:53:51;;;;;;;18.65;4.75;;;9.70;99.90;;;;;;2011833;29;20033;-79
2024/02/05 20:54:51;;;;;;;11.50;4.45;;;9.60;99.90;;;;;;1996257;29;20041;-78
2024/02/05 20:55:52;;;;;;;15.95;4.43;;;9.70;99.90;;;;;;2004000;29;20458;-78
2024/02/05 20:56:53;;;;;;;17.33;4.15;;;9.70;99.90;;;;;;2003808;29;20036;-79
2024/02/05 20:57:53;;;;;;;11.40;3.92;;;9.70;99.90;;;;;;1999413;29;20040;-79
2024/02/05 20:58:54;;;;;;;9.63;3.97;;;9.70;99.90;;;;;;2011525;29;20041;-78
2024/02/05 20:59:54;;;;;;;9.48;3.83;;;9.70;99.90;;;;;;2014986;29;20033;-79
2024/02/05 21:00:55;;;;;;;14.35;4.78;;;9.70;99.90;;;;;;2011225;29;20443;-78
2024/02/05 21:01:55;;;;;;;15.02;3.97;;;9.70;99.90;;;;;;2008954;29;20033;-80
2024/02/05 21:02:56;;;;;;;11.68;4.43;;;9.70;99.90;;;;;;2008106;29;20036;-79
2024/02/05 21:03:56;;;;;;;14.23;4.32;;;9.60;99.90;;;;;;2008234;29;20548;-77
2024/02/05 21:04:57;;;;;;;10.93;4.45;;;9.60;99.90;;;;;;2011864;29;20496;-80
2024/02/05 21:05:58;;;;;;;15.98;4.10;;;9.70;99.90;;;;;;2008170;29;20048;-79
2024/02/05 21:07:04;;;;;;;14.15;4.32;;;9.70;99.90;;;;;;2004514;29;20117;-79
2024/02/05 21:08:05;;;;;;;11.93;4.10;;;9.80;99.90;;;;;;2011302;29;20049;-80
2024/02/05 21:09:06;;;;;;;15.50;4.32;;;9.80;99.90;;;;;;2006815;29;20145;-80
2024/02/05 21:10:08;;;;;;;11.85;4.20;;;9.70;99.90;;;;;;2003795;29;20094;-78
2024/02/05 21:11:09;;;;;;;17.10;4.82;;;9.70;99.90;;;;;;1997173;29;20121;-80
2024/02/05 21:12:09;;;;;;;11.38;4.35;;;9.70;99.90;;;;;;2004957;29;20029;-78
2024/02/05 21:13:10;;;;;;;11.70;4.13;;;9.70;99.90;;;;;;2013908;29;20033;-80
2024/02/05 21:14:12;;;;;;;12.48;4.22;;;9.70;99.90;;;;;;2006524;29;20686;-81
2024/02/05 21:15:13;;;;;;;15.68;4.18;;;9.70;99.90;;;;;;2008618;29;20049;-81
2024/02/05 21:16:19;;;;;;;9.57;4.22;;;9.60;99.90;;;;;;2012644;29;20051;-80
2024/02/05 21:17:20;;;;;;;15.73;4.50;;;9.60;99.90;;;;;;2009761;29;20037;-79
2024/02/05 21:18:20;;;;;;;15.13;4.15;;;9.60;99.90;;;;;;2008715;29;20526;-79
2024/02/05 21:19:21;;;;;;;11.50;4.50;;;9.60;99.90;;;;;;2013326;29;20937;-79
2024/02/05 21:20:22;;;;;;;13.15;4.32;;;9.50;99.90;;;;;;2009532;29;20036;-79
2024/02/05 21:21:22;;;;;;;11.77;4.43;;;9.50;99.90;;;;;;2009487;29;20063;-80
2024/02/05 21:22:24;;;;;;;15.93;4.43;;;9.50;99.90;;;;;;2010156;29;20029;-81
2024/02/05 21:23:24;;;;;;;16.13;4.53;;;9.50;99.90;;;;;;2005845;29;20712;-79
2024/02/05 21:24:25;;;;;;;14.32;4.85;;;9.50;99.90;;;;;;2000866;29;20049;-81
2024/02/05 21:25:26;;;;;;;12.57;4.30;;;9.50;99.90;;;;;;2008229;29;20030;-79
2024/02/05 21:26:28;;;;;;;13.20;4.22;;;9.50;99.90;;;;;;1998591;29;20469;-80
2024/02/05 21:27:28;;;;;;;9.43;4.18;;;9.50;99.90;;;;;;2004782;29;20073;-78
2024/02/05 21:28:29;;;;;;;13.55;4.50;;;9.50;99.90;;;;;;2000760;29;20458;-78
2024/02/05 21:29:29;;;;;;;12.27;4.30;;;9.50;99.90;;;;;;1998487;29;20121;-77
2024/02/05 21:30:30;;;;;;;14.13;4.45;;;9.50;99.90;;;;;;2012942;29;20034;-79
2024/02/05 21:31:32;;;;;;;12.77;4.20;;;9.40;99.90;;;;;;2011195;29;20083;-79
2024/02/05 21:32:32;;;;;;;13.10;4.63;;;9.40;99.90;;;;;;2011369;29;20044;-80
2024/02/05 21:33:33;;;;;;;12.95;4.53;;;9.50;99.90;;;;;;2006046;29;20058;-79
2024/02/05 21:34:33;;;;;;;18.48;4.70;;;9.60;99.90;;;;;;2011972;29;20041;-80
2024/02/05 21:35:34;;;;;;;19.48;4.32;;;9.60;99.90;;;;;;2004274;29;20053;-80
2024/02/05 21:36:35;;;;;;;9.77;4.25;;;9.60;99.90;;;;;;2003299;29;20021;-78
2024/02/05 21:37:35;;;;;;;17.73;4.88;;;9.50;99.90;;;;;;2007594;29;20461;-80
2024/02/05 21:38:36;;;;;;;13.85;4.70;;;9.50;99.90;;;;;;1999787;29;20029;-78
2024/02/05 21:39:37;;;;;;;14.88;4.75;;;9.40;99.90;;;;;;1998910;29;20132;-77
2024/02/05 21:40:38;;;;;;;14.75;5.10;;;9.30;99.90;;;;;;2004032;29;20490;-79
2024/02/05 21:41:38;;;;;;;13.75;4.47;;;9.30;99.90;;;;;;2002959;29;20089;-81
2024/02/05 21:42:39;;;;;;;13.40;4.57;;;9.30;99.90;;;;;;2003049;29;20037;-78
2024/02/05 21:43:39;;;;;;;12.77;4.30;;;9.30;99.90;;;;;;1996521;29;20026;-81
2024/02/05 21:44:40;;;;;;;16.58;5.00;;;9.40;99.90;;;;;;2003473;29;20497;-77
2024/02/05 21:45:41;;;;;;;13.15;4.40;;;9.40;99.90;;;;;;2004246;29;20037;-79
2024/02/05 21:46:41;;;;;;;14.45;4.60;;;9.40;99.90;;;;;;1996191;29;20058;-78
2024/02/05 21:47:42;;;;;;;15.18;4.50;;;9.40;99.90;;;;;;2003374;29;20572;-79
2024/02/05 21:48:44;;;;;;;14.52;4.38;;;9.40;99.90;;;;;;2010793;29;20112;-78
2024/02/05 21:49:50;;;;;;;18.30;4.65;;;9.50;99.90;;;;;;2011309;29;20147;-80
2024/02/05 21:50:51;;;;;;;12.88;4.43;;;9.50;99.90;;;;;;2005445;29;20021;-79
2024/02/05 21:51:52;;;;;;;12.48;4.22;;;9.50;99.90;;;;;;2001345;29;20498;-80
2024/02/05 21:52:53;;;;;;;18.15;4.80;;;9.50;99.90;;;;;;2013136;29;20055;-80
2024/02/05 21:53:53;;;;;;;13.40;4.43;;;9.50;99.90;;;;;;1998182;29;20030;-80
2024/02/05 21:54:54;;;;;;;14.27;4.43;;;9.50;99.90;;;;;;1996065;29;20143;-79
2024/02/05 21:55:54;;;;;;;10.73;4.55;;;9.60;99.90;;;;;;2011105;29;20036;-79
2024/02/05 21:56:55;;;;;;;15.20;4.60;;;9.60;99.90;;;;;;1999212;29;20034;-79
2024/02/05 21:57:56;;;;;;;17.98;4.97;;;9.50;99.90;;;;;;2006436;29;20029;-80
2024/02/05 21:58:56;;;;;;;13.38;4.28;;;9.60;99.90;;;;;;2001419;29;20026;-79
2024/02/05 21:59:57;;;;;;;13.80;4.50;;;9.60;99.90;;;;;;2005605;29;20400;-78
2024/02/05 22:00:57;;;;;;;13.15;4.38;;;9.60;99.90;;;;;;2012645;29;20037;-80
2024/02/05 22:01:58;;;;;;;17.77;4.85;;;9.60;99.90;;;;;;2000941;29;20033;-79
2024/02/05 22:02:59;;;;;;;14.57;4.60;;;9.60;99.90;;;;;;1995766;29;20066;-79
2024/02/05 22:03:59;;;;;;;16.40;4.68;;;9.60;99.90;;;;;;1991245;29;20060;-79
2024/02/05 22:05:00;;;;;;;16.52;4.70;;;9.60;99.90;;;;;;2000210;29;20069;-78
2024/02/05 22:06:02;;;;;;;15.25;4.55;;;9.60;99.90;;;;;;2002977;29;20048;-79
2024/02/05 22:07:02;;;;;;;14.68;4.40;;;9.60;99.90;;;;;;1999349;29;20066;-79
2024/02/05 22:08:03;;;;;;;14.45;4.47;;;9.70;99.90;;;;;;2011958;29;20036;-79
2024/02/05 22:09:04;;;;;;;16.00;4.22;;;9.60;99.90;;;;;;2006303;29;20784;-80
2024/02/05 22:10:05;;;;;;;13.00;4.35;;;9.60;99.90;;;;;;2011509;29;20698;-80
2024/02/05 22:11:06;;;;;;;12.88;4.53;;;9.60;99.90;;;;;;2004132;29;20037;-77
2024/02/05 22:12:07;;;;;;;12.23;4.30;;;9.60;99.90;;;;;;1998525;29;20232;-78
2024/02/05 22:13:09;;;;;;;11.75;4.40;;;9.60;99.90;;;;;;2011437;29;20041;-77
2024/02/05 22:14:09;;;;;;;12.15;4.40;;;9.70;99.90;;;;;;2008614;29;20037;-77
2024/02/05 22:15:10;;;;;;;11.13;4.47;;;9.60;99.90;;;;;;2008732;29;20571;-78
2024/02/05 22:16:11;;;;;;;15.93;4.50;;;9.70;99.90;;;;;;1999577;29;20033;-79
2024/02/05 22:17:11;;;;;;;16.77;4.90;;;9.70;99.90;;;;;;1996152;29;20030;-79
2024/02/05 22:18:12;;;;;;;14.35;4.57;;;9.70;99.90;;;;;;1996997;29;20898;-80
2024/02/05 22:19:16;;;;;;;11.45;4.43;;;9.70;99.90;;;;;;2003772;29;20041;-79
2024/02/05 22:20:16;;;;;;;16.85;4.55;;;9.70;99.90;;;;;;2003652;29;20065;-77
2024/02/05 22:21:17;;;;;;;14.65;5.03;;;9.60;99.90;;;;;;2001441;29;20037;-79
2024/02/05 22:22:17;;;;;;;11.80;4.07;;;9.60;99.90;;;;;;2006024;29;20033;-80
2024/02/05 22:23:18;;;;;;;11.52;4.25;;;9.60;99.90;;;;;;2011085;29;20029;-79
2024/02/05 22:24:18;;;;;;;17.10;4.97;;;9.60;99.90;;;;;;2012609;29;20033;-80
2024/02/05 22:25:19;;;;;;;14.90;4.90;;;9.60;99.90;;;;;;2009407;29;20056;-80
2024/02/05 22:26:20;;;;;;;15.80;4.50;;;9.60;99.90;;;;;;2005948;29;20058;-81
2024/02/05 22:27:20;;;;;;;12.85;4.65;;;9.60;99.90;;;;;;2004869;29;20116;-80
2024/02/05 22:28:22;;;;;;;14.63;4.70;;;9.60;99.90;;;;;;2005046;29;20021;-80
2024/02/05 22:29:23;;;;;;;13.05;4.88;;;9.70;99.90;;;;;;2010705;29;20294;-73
2024/02/05 22:30:24;;;;;;;16.25;4.82;;;9.60;99.90;;;;;;2005163;29;20040;-73
2024/02/05 22:31:25;;;;;;;18.10;4.60;;;9.60;99.90;;;;;;2001472;29;20373;-74
2024/02/05 22:32:29;;;;;;;11.38;4.50;;;9.60;99.90;;;;;;2010432;29;20055;-75
2024/02/05 22:33:29;;;;;;;14.73;4.53;;;9.60;99.90;;;;;;2010691;29;20092;-75
2024/02/05 22:34:30;;;;;;;16.85;4.60;;;9.60;99.90;;;;;;2009070;29;20380;-73
2024/02/05 22:35:31;;;;;;;16.35;4.82;;;9.60;99.90;;;;;;2011617;29;20103;-73
2024/02/05 22:36:31;;;;;;;15.75;4.50;;;9.50;99.90;;;;;;2005332;29;20037;-73
2024/02/05 22:37:32;;;;;;;12.23;4.65;;;9.50;99.90;;;;;;2007567;29;20038;-74
2024/02/05 22:38:32;;;;;;;14.63;4.70;;;9.50;99.90;;;;;;1994777;29;20045;-73
2024/02/05 22:39:33;;;;;;;13.02;4.57;;;9.50;99.90;;;;;;1997368;29;20094;-76
2024/02/05 22:40:33;;;;;;;13.68;4.93;;;9.50;99.90;;;;;;2008214;29;20034;-75
2024/02/05 22:41:34;;;;;;;11.30;4.38;;;9.50;99.90;;;;;;2011978;29;20017;-75
2024/02/05 22:42:38;;;;;;;13.82;4.80;;;9.50;99.90;;;;;;2000850;29;20082;-75
2024/02/05 22:43:38;;;;;;;14.52;4.38;;;9.50;99.90;;;;;;1996215;29;20037;-74
2024/02/05 22:44:39;;;;;;;12.43;4.65;;;9.50;99.90;;;;;;2011470;29;20021;-75
2024/02/05 22:45:39;;;;;;;16.40;4.57;;;9.50;99.90;;;;;;2009781;29;20128;-74
2024/02/05 22:46:40;;;;;;;16.70;4.63;;;9.50;99.90;;;;;;2007626;29;20037;-74
2024/02/05 22:47:40;;;;;;;13.60;4.78;;;9.50;99.90;;;;;;2010101;29;20029;-75
2024/02/05 22:48:41;;;;;;;14.40;4.88;;;9.50;99.90;;;;;;2006110;29;20033;-75
2024/02/05 22:49:42;;;;;;;15.63;4.72;;;9.50;99.90;;;;;;2011300;29;20095;-75
2024/02/05 22:50:42;;;;;;;12.88;4.28;;;9.50;99.90;;;;;;2006111;29;20092;-75
2024/02/05 22:51:43;;;;;;;14.38;4.53;;;9.50;99.90;;;;;;2005219;29;20669;-74
2024/02/05 22:52:43;;;;;;;12.38;4.75;;;9.50;99.90;;;;;;2001697;29;20049;-75
2024/02/05 22:53:44;;;;;;;12.38;4.50;;;9.50;99.90;;;;;;2001283;29;20029;-74
2024/02/05 22:54:44;;;;;;;15.93;4.50;;;9.40;99.90;;;;;;2005864;29;20033;-75
2024/02/05 22:55:45;;;;;;;17.30;4.90;;;9.40;99.90;;;;;;2009766;29;20498;-74
2024/02/05 22:56:45;;;;;;;16.63;4.88;;;9.40;99.90;;;;;;2009125;29;20036;-74
2024/02/05 22:57:46;;;;;;;15.23;5.05;;;9.40;99.90;;;;;;2008933;29;20060;-74
2024/02/05 22:58:47;;;;;;;17.75;4.72;;;9.40;99.90;;;;;;2009754;29;20524;-73
2024/02/05 22:59:48;;;;;;;12.63;4.45;;;9.40;99.90;;;;;;2008984;29;20025;-74
2024/02/05 23:00:48;;;;;;;13.85;4.72;;;9.40;99.90;;;;;;2008959;29;20033;-74
2024/02/05 23:01:49;;;;;;;17.45;4.60;;;9.40;99.90;;;;;;2010227;29;20033;-74
2024/02/05 23:02:49;;;;;;;19.08;5.22;;;9.40;99.90;;;;;;2005488;29;20065;-75
2024/02/05 23:03:50;;;;;;;14.30;4.70;;;9.40;99.90;;;;;;2001785;29;20045;-74
2024/02/05 23:04:52;;;;;;;12.68;5.18;;;9.40;99.90;;;;;;2008125;29;20033;-74
2024/02/05 23:05:53;;;;;;;14.65;4.68;;;9.40;99.90;;;;;;2008514;29;20222;-74
2024/02/05 23:06:53;;;;;;;11.82;4.55;;;9.40;99.90;;;;;;2014591;29;20033;-74
2024/02/05 23:07:54;;;;;;;15.02;4.63;;;9.40;99.90;;;;;;2009633;29;20025;-75
2024/02/05 23:08:55;;;;;;;16.30;4.65;;;9.40;99.90;;;;;;2004660;29;20083;-73
2024/02/05 23:09:55;;;;;;;17.25;4.95;;;9.40;99.90;;;;;;2008434;29;20045;-73
2024/02/05 23:10:56;;;;;;;13.60;4.80;;;9.40;99.90;;;;;;2008977;29;20112;-73
2024/02/05 23:11:56;;;;;;;14.50;4.55;;;9.40;99.90;;;;;;2006686;29;20449;-73
2024/02/05 23:12:57;;;;;;;14.32;4.45;;;9.40;99.90;;;;;;2008263;29;23271;-74
2024/02/05 23:14:05;;;;;;;13.10;4.80;;;9.40;99.90;;;;;;2001350;29;20057;-74
2024/02/05 23:15:06;;;;;;;16.77;4.88;;;9.40;99.90;;;;;;2006443;29;21068;-75
2024/02/05 23:16:07;;;;;;;17.60;5.30;;;9.40;99.90;;;;;;2007463;29;20033;-76
2024/02/05 23:17:08;;;;;;;16.02;5.03;;;9.40;99.90;;;;;;2005007;29;20078;-72
2024/02/05 23:18:09;;;;;;;16.05;5.00;;;9.40;99.90;;;;;;2009043;29;20037;-71
2024/02/05 23:19:11;;;;;;;14.52;5.18;;;9.40;99.90;;;;;;2007809;29;20036;-72
2024/02/05 23:20:14;;;;;;;12.15;5.00;;;9.40;99.90;;;;;;2009500;29;20041;-73
2024/02/05 23:21:14;;;;;;;16.75;5.55;;;9.40;99.90;;;;;;2005677;29;20557;-74
2024/02/05 23:22:15;;;;;;;18.83;4.70;;;9.40;99.90;;;;;;2009735;29;20033;-74
2024/02/05 23:23:16;;;;;;;16.52;5.00;;;9.40;99.90;;;;;;2002659;29;20066;-74
2024/02/05 23:24:17;;;;;;;18.02;5.03;;;9.40;99.90;;;;;;2010452;29;20642;-73
2024/02/05 23:25:19;;;;;;;13.82;5.30;;;9.30;99.90;;;;;;2010242;29;20239;-74
2024/02/05 23:26:19;;;;;;;14.25;4.78;;;9.30;99.90;;;;;;2010389;29;20036;-74
2024/02/05 23:27:20;;;;;;;21.05;5.35;;;9.30;99.90;;;;;;2011129;29;20086;-74
2024/02/05 23:28:20;;;;;;;22.90;5.20;;;9.30;99.90;;;;;;2012619;29;20045;-75
2024/02/05 23:29:21;;;;;;;12.20;5.18;;;9.30;99.90;;;;;;2011432;29;20067;-74
2024/02/05 23:30:21;;;;;;;15.35;4.97;;;9.30;99.90;;;;;;2011052;29;20048;-74